createdAt,value
2018-04-11T00:02:02.809Z,11.93
2018-04-11T00:04:30.268Z,11.70
2018-04-11T00:06:57.727Z,11.23
2018-04-11T00:09:25.204Z,12.07
2018-04-11T00:11:53.416Z,11.97
2018-04-11T00:14:20.895Z,11.20
2018-04-11T00:16:48.348Z,12.37
2018-04-11T00:19:15.812Z,11.77
2018-04-11T00:21:44.044Z,12.70
2018-04-11T00:24:11.516Z,11.80
2018-04-11T00:26:38.974Z,11.70
2018-04-11T00:29:07.202Z,11.83
2018-04-11T00:31:34.673Z,11.60
2018-04-11T00:34:02.894Z,12.17
2018-04-11T00:36:30.361Z,11.63
2018-04-11T00:38:57.825Z,12.03
2018-04-11T00:41:25.292Z,11.60
2018-04-11T00:43:52.749Z,11.50
2018-04-11T00:46:20.213Z,11.10
2018-04-11T00:48:47.684Z,12.07
2018-04-11T00:51:15.144Z,12.40
2018-04-11T00:53:42.621Z,12.23
2018-04-11T00:56:10.100Z,11.97
2018-04-11T00:58:37.545Z,11.57
2018-04-11T01:01:05.020Z,10.57
2018-04-11T01:03:32.476Z,12.67
2018-04-11T01:05:59.953Z,11.20
2018-04-11T01:08:27.412Z,11.50
2018-04-11T01:10:54.881Z,10.67
2018-04-11T01:13:22.329Z,11.17
2018-04-11T01:15:49.804Z,13.80
2018-04-11T01:18:17.260Z,13.33
2018-04-11T01:20:45.505Z,10.50
2018-04-11T01:23:12.996Z,10.50
2018-04-11T01:25:40.448Z,9.87
2018-04-11T01:28:07.907Z,10.53
2018-04-11T01:30:36.171Z,11.17
2018-04-11T01:33:03.619Z,10.27
2018-04-11T01:35:31.100Z,10.80
2018-04-11T01:37:58.568Z,11.10
2018-04-11T01:40:26.020Z,10.30
2018-04-11T01:42:53.467Z,12.90
2018-04-11T01:45:20.951Z,10.93
2018-04-11T01:47:49.187Z,13.10
2018-04-11T01:50:16.661Z,11.00
2018-04-11T01:52:44.115Z,11.03
2018-04-11T01:55:11.581Z,11.00
2018-04-11T01:57:39.036Z,11.00
2018-04-11T02:00:06.489Z,10.67
2018-04-11T02:02:33.944Z,10.37
2018-04-11T02:05:01.412Z,10.40
2018-04-11T02:07:28.879Z,10.57
2018-04-11T02:09:56.331Z,11.17
2018-04-11T02:12:24.560Z,11.07
2018-04-11T02:14:52.016Z,11.00
2018-04-11T02:17:19.482Z,11.47
2018-04-11T02:19:46.960Z,11.10
2018-04-11T02:22:14.419Z,10.30
2018-04-11T02:24:41.880Z,10.37
2018-04-11T02:27:09.379Z,10.80
2018-04-11T02:29:36.840Z,10.07
2018-04-11T02:32:04.383Z,9.87
2018-04-11T02:34:31.761Z,10.67
2018-04-11T02:36:59.246Z,11.13
2018-04-11T02:39:26.718Z,11.27
2018-04-11T02:41:54.182Z,10.00
2018-04-11T02:44:21.626Z,10.30
2018-04-11T02:46:49.101Z,11.77
2018-04-11T02:49:16.564Z,11.73
2018-04-11T02:51:44.044Z,10.53
2018-04-11T02:54:12.252Z,10.53
2018-04-11T02:56:39.704Z,10.13
2018-04-11T02:59:07.176Z,11.50
2018-04-11T03:01:34.642Z,11.13
2018-04-11T03:04:02.092Z,11.27
2018-04-11T03:06:29.592Z,10.87
2018-04-11T03:08:57.043Z,11.33
2018-04-11T03:11:24.515Z,10.30
2018-04-11T03:13:51.981Z,11.60
2018-04-11T03:16:20.220Z,10.63
2018-04-11T03:18:47.682Z,11.40
2018-04-11T03:21:15.141Z,11.10
2018-04-11T03:23:42.599Z,10.93
2018-04-11T03:26:10.055Z,10.30
2018-04-11T03:28:37.528Z,9.70
2018-04-11T03:31:05.768Z,10.57
2018-04-11T03:33:33.305Z,11.33
2018-04-11T03:36:00.705Z,10.50
2018-04-11T03:38:28.160Z,10.73
2018-04-11T03:40:55.624Z,10.20
2018-04-11T03:43:23.083Z,11.37
2018-04-11T03:45:50.545Z,10.80
2018-04-11T03:48:17.988Z,11.53
2018-04-11T03:50:45.464Z,10.70
2018-04-11T03:53:12.912Z,10.87
2018-04-11T03:55:40.376Z,9.77
2018-04-11T03:58:07.820Z,10.33
2018-04-11T04:00:35.293Z,10.43
2018-04-11T04:03:02.749Z,10.93
2018-04-11T04:05:30.984Z,10.10
2018-04-11T04:07:58.449Z,9.20
2018-04-11T04:10:25.936Z,10.60
2018-04-11T04:12:53.412Z,10.37
2018-04-11T04:15:33.470Z,9.40
2018-04-11T04:18:12.636Z,9.63
2018-04-11T04:20:40.109Z,10.27
2018-04-11T04:23:07.595Z,9.83
2018-04-11T04:25:35.065Z,12.20
2018-04-11T04:28:02.508Z,11.80
2018-04-11T04:30:29.976Z,10.50
2018-04-11T04:32:58.203Z,9.97
2018-04-11T04:35:25.660Z,11.23
2018-04-11T04:37:53.145Z,12.13
2018-04-11T04:40:20.604Z,9.57
2018-04-11T04:42:48.061Z,9.80
2018-04-11T04:45:15.533Z,9.67
2018-04-11T04:47:42.984Z,10.13
2018-04-11T04:50:10.437Z,10.63
2018-04-11T04:52:37.896Z,10.77
2018-04-11T04:55:06.128Z,9.90
2018-04-11T04:57:33.590Z,10.00
2018-04-11T05:00:01.039Z,9.27
2018-04-11T05:02:28.533Z,9.10
2018-04-11T05:04:56.004Z,9.60
2018-04-11T05:07:23.479Z,10.13
2018-04-11T05:09:51.683Z,9.80
2018-04-11T05:12:19.140Z,9.63
2018-04-11T05:14:46.599Z,9.87
2018-04-11T05:17:14.056Z,10.00
2018-04-11T05:19:41.499Z,9.70
2018-04-11T05:22:08.959Z,9.43
2018-04-11T05:24:36.428Z,10.43
2018-04-11T05:27:03.888Z,8.30
2018-04-11T05:29:31.346Z,10.23
2018-04-11T05:31:59.580Z,9.50
2018-04-11T05:34:27.814Z,9.67
2018-04-11T05:36:55.289Z,9.67
2018-04-11T05:39:22.731Z,9.50
2018-04-11T05:41:50.194Z,9.90
2018-04-11T05:44:17.642Z,9.60
2018-04-11T05:46:45.096Z,8.83
2018-04-11T05:49:12.559Z,10.30
2018-04-11T05:51:40.020Z,9.43
2018-04-11T05:54:07.486Z,8.43
2018-04-11T05:56:34.951Z,11.37
2018-04-11T05:59:02.401Z,10.40
2018-04-11T06:01:29.874Z,9.17
2018-04-11T06:03:57.318Z,12.37
2018-04-11T06:06:24.784Z,11.93
2018-04-11T06:08:52.228Z,9.10
2018-04-11T06:11:19.685Z,9.07
2018-04-11T06:13:47.144Z,9.93
2018-04-11T06:16:14.603Z,8.63
2018-04-11T06:18:42.092Z,8.63
2018-04-11T06:21:10.328Z,7.83
2018-04-11T06:23:37.772Z,10.23
2018-04-11T06:26:05.217Z,8.57
2018-04-11T06:28:32.672Z,9.47
2018-04-11T06:31:00.884Z,9.17
2018-04-11T06:33:28.372Z,8.50
2018-04-11T06:35:56.584Z,9.43
2018-04-11T06:38:24.037Z,8.40
2018-04-11T06:40:51.479Z,9.23
2018-04-11T06:43:18.928Z,8.50
2018-04-11T06:45:46.379Z,8.43
2018-04-11T06:48:14.622Z,7.90
2018-04-11T06:50:42.052Z,7.60
2018-04-11T06:53:09.517Z,7.57
2018-04-11T06:55:37.023Z,8.57
2018-04-11T06:58:05.248Z,8.70
2018-04-11T07:00:32.706Z,11.60
2018-04-11T07:03:00.168Z,8.07
2018-04-11T07:05:27.609Z,9.53
2018-04-11T07:07:55.079Z,6.87
2018-04-11T07:10:22.520Z,8.80
2018-04-11T07:12:49.976Z,7.50
2018-04-11T07:15:17.437Z,7.33
2018-04-11T07:17:44.907Z,8.90
2018-04-11T07:20:12.364Z,7.90
2018-04-11T07:22:39.819Z,8.07
2018-04-11T07:25:07.267Z,8.30
2018-04-11T07:27:34.733Z,8.23
2018-04-11T07:30:02.176Z,7.60
2018-04-11T07:32:30.408Z,7.83
2018-04-11T07:34:57.856Z,7.10
2018-04-11T07:37:25.320Z,8.33
2018-04-11T07:39:52.779Z,7.43
2018-04-11T07:42:20.248Z,7.40
2018-04-11T07:44:48.460Z,7.10
2018-04-11T07:47:15.939Z,9.40
2018-04-11T07:49:43.380Z,7.27
2018-04-11T07:52:10.836Z,7.13
2018-04-11T07:54:38.293Z,7.30
2018-04-11T07:57:05.752Z,7.80
2018-04-11T07:59:33.222Z,7.17
2018-04-11T08:02:00.676Z,7.30
2018-04-11T08:04:28.117Z,7.10
2018-04-11T08:06:55.585Z,7.50
2018-04-11T08:09:23.035Z,8.87
2018-04-11T08:11:51.266Z,7.90
2018-04-11T08:14:18.717Z,7.27
2018-04-11T08:16:46.180Z,8.50
2018-04-11T08:19:13.632Z,7.00
2018-04-11T08:21:41.091Z,7.57
2018-04-11T08:24:08.066Z,7.27
2018-04-11T08:26:35.533Z,7.47
2018-04-11T08:29:03.000Z,8.23
2018-04-11T08:31:30.456Z,8.03
2018-04-11T08:33:57.918Z,7.83
2018-04-11T08:36:25.378Z,6.93
2018-04-11T08:38:52.844Z,7.30
2018-04-11T08:41:20.296Z,7.40
2018-04-11T08:43:47.752Z,7.00
2018-04-11T08:46:15.208Z,7.97
2018-04-11T08:48:43.441Z,7.50
2018-04-11T08:51:10.932Z,6.80
2018-04-11T08:53:38.398Z,7.17
2018-04-11T08:56:05.859Z,7.20
2018-04-11T08:58:33.320Z,7.43
2018-04-11T09:01:00.774Z,7.47
2018-04-11T09:03:28.234Z,7.97
2018-04-11T09:05:55.680Z,6.80
2018-04-11T09:08:23.171Z,7.93
2018-04-11T09:13:41.239Z,7.20
2018-04-11T09:16:08.691Z,7.83
2018-04-11T09:18:36.161Z,7.47
2018-04-11T09:21:03.591Z,7.60
2018-04-11T09:23:31.071Z,6.93
2018-04-11T09:25:58.537Z,6.93
2018-04-11T09:28:25.983Z,7.17
2018-04-11T09:30:54.245Z,8.40
2018-04-11T09:33:21.699Z,7.20
2018-04-11T09:35:49.144Z,7.17
2018-04-11T09:38:16.608Z,6.93
2018-04-11T09:40:44.824Z,7.77
2018-04-11T09:43:13.044Z,7.50
2018-04-11T09:45:40.495Z,7.20
2018-04-11T09:48:07.964Z,7.77
2018-04-11T09:50:35.408Z,7.60
2018-04-11T09:53:02.868Z,8.03
2018-04-11T09:55:30.311Z,8.67
2018-04-11T09:57:57.757Z,6.97
2018-04-11T10:00:25.245Z,7.70
2018-04-11T10:02:59.027Z,7.13
2018-04-11T10:05:26.501Z,7.70
2018-04-11T10:07:53.965Z,7.30
2018-04-11T10:10:21.415Z,8.10
2018-04-11T10:12:48.887Z,8.07
2018-04-11T10:15:16.329Z,7.33
2018-04-11T10:17:43.796Z,8.27
2018-04-11T10:20:11.255Z,7.60
2018-04-11T10:22:38.724Z,7.77
2018-04-11T10:25:06.178Z,9.97
2018-04-11T10:27:33.633Z,10.13
2018-04-11T10:30:01.086Z,8.73
2018-04-11T10:32:28.542Z,8.57
2018-04-11T10:34:55.996Z,7.57
2018-04-11T10:37:23.461Z,7.60
2018-04-11T10:39:51.672Z,7.43
2018-04-11T10:42:19.120Z,8.13
2018-04-11T10:44:46.588Z,6.77
2018-04-11T10:47:14.035Z,6.80
2018-04-11T10:49:41.492Z,8.67
2018-04-11T10:52:08.965Z,8.10
2018-04-11T10:54:36.454Z,7.03
2018-04-11T10:57:03.891Z,7.90
2018-04-11T10:59:32.108Z,7.87
2018-04-11T11:01:59.556Z,7.50
2018-04-11T11:04:27.011Z,7.00
2018-04-11T11:06:54.461Z,8.03
2018-04-11T11:09:21.925Z,7.30
2018-04-11T11:11:49.367Z,6.57
2018-04-11T11:14:16.812Z,7.33
2018-04-11T11:16:45.023Z,6.77
2018-04-11T11:19:12.483Z,8.10
2018-04-11T11:21:39.951Z,6.77
2018-04-11T11:24:07.399Z,7.73
2018-04-11T11:26:34.848Z,6.60
2018-04-11T11:29:02.319Z,6.20
2018-04-11T11:31:29.774Z,5.97
2018-04-11T11:33:57.228Z,6.30
2018-04-11T11:36:24.681Z,4.70
2018-04-11T11:38:52.137Z,5.50
2018-04-11T11:41:19.584Z,4.97
2018-04-11T11:43:47.803Z,4.83
2018-04-11T11:46:15.251Z,5.70
2018-04-11T11:48:42.703Z,5.90
2018-04-11T11:51:10.147Z,7.57
2018-04-11T11:53:37.600Z,6.50
2018-04-11T11:56:05.052Z,5.27
2018-04-11T11:58:32.524Z,5.30
2018-04-11T12:00:59.964Z,4.73
2018-04-11T12:03:27.424Z,4.43
2018-04-11T12:05:54.884Z,4.27
2018-04-11T12:08:22.341Z,4.10
2018-04-11T12:10:49.824Z,4.03
2018-04-11T12:13:17.287Z,3.43
2018-04-11T12:15:44.762Z,3.67
2018-04-11T12:18:12.981Z,3.70
2018-04-11T12:20:41.204Z,3.60
2018-04-11T12:23:08.664Z,4.03
2018-04-11T12:25:36.884Z,3.80
2018-04-11T12:28:04.355Z,4.00
2018-04-11T12:30:31.839Z,4.83
2018-04-11T12:32:59.296Z,4.33
2018-04-11T12:35:27.524Z,4.00
2018-04-11T12:37:54.969Z,3.60
2018-04-11T12:40:23.199Z,3.60
2018-04-11T12:42:50.660Z,3.47
2018-04-11T12:45:18.112Z,3.73
2018-04-11T12:47:46.323Z,3.40
2018-04-11T12:50:14.612Z,3.20
2018-04-11T12:52:42.047Z,3.00
2018-04-11T12:55:09.508Z,3.57
2018-04-11T12:57:36.963Z,3.10
2018-04-11T13:00:04.419Z,3.03
2018-04-11T13:02:31.858Z,2.70
2018-04-11T13:04:59.308Z,2.57
2018-04-11T13:07:26.765Z,2.53
2018-04-11T13:09:54.227Z,2.33
2018-04-11T13:12:21.679Z,2.60
2018-04-11T13:14:49.143Z,2.03
2018-04-11T13:17:16.588Z,2.50
2018-04-11T13:19:44.048Z,2.40
2018-04-11T13:22:11.488Z,2.30
2018-04-11T13:24:38.947Z,2.27
2018-04-11T13:27:06.408Z,2.60
2018-04-11T13:29:33.874Z,1.97
2018-04-11T13:32:01.320Z,2.20
2018-04-11T13:34:28.775Z,2.30
2018-04-11T13:36:56.987Z,2.00
2018-04-11T13:39:24.447Z,1.90
2018-04-11T13:41:51.904Z,2.17
2018-04-11T13:44:19.360Z,2.10
2018-04-11T13:46:46.813Z,1.85
2018-04-11T13:49:14.268Z,2.20
2018-04-11T13:51:41.723Z,1.90
2018-04-11T13:54:09.188Z,1.65
2018-04-11T13:56:37.399Z,1.92
2018-04-11T13:59:05.620Z,2.00
2018-04-11T14:01:33.082Z,1.87
2018-04-11T14:04:00.539Z,1.92
2018-04-11T14:06:27.989Z,1.60
2018-04-11T14:08:55.439Z,1.92
2018-04-11T14:11:22.896Z,1.90
2018-04-11T14:13:50.351Z,1.80
2018-04-11T14:16:17.824Z,1.70
2018-04-11T14:18:45.269Z,2.40
2018-04-11T14:21:12.732Z,2.07
2018-04-11T14:23:40.180Z,2.80
2018-04-11T14:26:07.648Z,2.30
2018-04-11T14:28:35.096Z,2.17
2018-04-11T14:31:02.550Z,2.60
2018-04-11T14:33:30.780Z,3.30
2018-04-11T14:35:58.235Z,3.40
2018-04-11T14:38:25.687Z,3.60
2018-04-11T14:40:53.147Z,3.73
2018-04-11T14:43:20.596Z,4.23
2018-04-11T14:45:48.059Z,4.20
2018-04-11T14:48:15.504Z,4.67
2018-04-11T14:50:42.973Z,4.80
2018-04-11T14:53:10.420Z,4.63
2018-04-11T14:55:37.876Z,4.33
2018-04-11T14:58:05.337Z,4.53
2018-04-11T15:00:32.792Z,4.47
2018-04-11T15:03:00.232Z,3.60
2018-04-11T15:05:28.450Z,4.00
2018-04-11T15:07:56.686Z,4.00
2018-04-11T15:10:24.133Z,3.73
2018-04-11T15:12:51.589Z,4.40
2018-04-11T15:15:19.055Z,4.50
2018-04-11T15:17:47.277Z,4.30
2018-04-11T15:20:15.488Z,4.03
2018-04-11T15:22:42.942Z,4.23
2018-04-11T15:25:11.168Z,4.07
2018-04-11T15:27:38.628Z,4.90
2018-04-11T15:30:06.071Z,4.53
2018-04-11T15:32:33.519Z,4.83
2018-04-11T15:35:00.984Z,4.80
2018-04-11T15:37:28.482Z,4.80
2018-04-11T15:39:55.930Z,5.80
2018-04-11T15:42:24.197Z,5.87
2018-04-11T15:44:51.653Z,6.07
2018-04-11T15:47:19.877Z,5.70
2018-04-11T15:49:47.324Z,6.30
2018-04-11T15:52:14.804Z,6.10
2018-04-11T15:54:42.261Z,6.33
2018-04-11T15:57:09.712Z,6.47
2018-04-11T15:59:37.174Z,6.90
2018-04-11T16:02:04.629Z,7.00
2018-04-11T16:04:32.084Z,7.53
2018-04-11T16:06:59.542Z,7.03
2018-04-11T16:09:26.997Z,7.50
2018-04-11T16:11:54.452Z,7.90
2018-04-11T16:14:21.910Z,7.63
2018-04-11T16:16:49.375Z,7.40
2018-04-11T16:19:16.824Z,7.20
2018-04-11T16:21:44.280Z,6.83
2018-04-11T16:24:12.486Z,8.07
2018-04-11T16:26:39.948Z,7.30
2018-04-11T16:29:07.399Z,8.13
2018-04-11T16:31:34.856Z,7.57
2018-04-11T16:34:02.299Z,7.80
2018-04-11T16:36:29.759Z,8.30
2018-04-11T16:38:57.209Z,7.47
2018-04-11T16:41:24.667Z,7.70
2018-04-11T16:43:52.113Z,8.50
2018-04-11T16:46:19.592Z,7.77
2018-04-11T16:48:47.041Z,8.03
2018-04-11T16:51:14.511Z,8.30
2018-04-11T16:53:41.963Z,7.80
2018-04-11T16:56:09.453Z,7.70
2018-04-11T16:58:37.672Z,8.23
2018-04-11T17:01:05.137Z,7.63
2018-04-11T17:03:32.597Z,7.83
2018-04-11T17:06:00.047Z,7.93
2018-04-11T17:08:27.499Z,7.60
2018-04-11T17:10:54.957Z,7.73
2018-04-11T17:13:22.400Z,8.30
2018-04-11T17:15:49.854Z,8.07
2018-04-11T17:18:17.308Z,8.67
2018-04-11T17:23:55.420Z,7.57
2018-04-11T17:26:35.468Z,8.17
2018-04-11T17:29:15.484Z,8.57
2018-04-11T17:31:43.073Z,7.97
2018-04-11T17:34:10.515Z,9.03
2018-04-11T17:36:37.992Z,8.70
2018-04-11T17:39:06.211Z,8.83
2018-04-11T17:41:33.671Z,7.93
2018-04-11T17:44:01.134Z,9.07
2018-04-11T17:46:28.595Z,8.63
2018-04-11T17:48:56.052Z,8.73
2018-04-11T17:51:23.562Z,8.43
2018-04-11T17:53:50.993Z,9.60
2018-04-11T17:56:18.444Z,8.80
2018-04-11T17:58:46.687Z,8.67
2018-04-11T18:01:14.155Z,8.47
2018-04-11T18:03:41.604Z,8.97
2018-04-11T18:06:09.059Z,9.80
2018-04-11T18:08:36.524Z,9.50
2018-04-11T18:11:03.963Z,9.60
2018-04-11T18:13:31.432Z,8.87
2018-04-11T18:15:58.902Z,8.73
2018-04-11T18:18:26.360Z,9.10
2018-04-11T18:20:53.804Z,8.40
2018-04-11T18:23:21.261Z,8.50
2018-04-11T18:25:48.721Z,8.33
2018-04-11T18:28:16.180Z,7.67
2018-04-11T18:30:43.635Z,8.70
2018-04-11T18:33:11.091Z,8.40
2018-04-11T18:35:38.536Z,8.10
2018-04-11T18:38:05.987Z,8.90
2018-04-11T18:40:34.200Z,8.30
2018-04-11T18:43:01.656Z,8.50
2018-04-11T18:45:29.100Z,9.10
2018-04-11T18:47:56.561Z,8.97
2018-04-11T18:50:24.023Z,8.97
2018-04-11T18:52:51.473Z,8.63
2018-04-11T18:55:19.004Z,10.03
2018-04-11T18:57:46.424Z,8.43
2018-04-11T19:00:13.904Z,9.53
2018-04-11T19:02:41.383Z,9.50
2018-04-11T19:05:08.837Z,10.30
2018-04-11T19:07:36.289Z,9.27
2018-04-11T19:10:03.735Z,9.80
2018-04-11T19:12:31.973Z,9.30
2018-04-11T19:14:59.414Z,9.63
2018-04-11T19:17:26.866Z,11.10
2018-04-11T19:19:54.396Z,8.87
2018-04-11T19:22:22.607Z,9.97
2018-04-11T19:24:50.081Z,10.47
2018-04-11T19:27:17.532Z,9.30
2018-04-11T19:29:44.992Z,9.90
2018-04-11T19:32:12.431Z,9.50
2018-04-11T19:34:39.897Z,9.90
2018-04-11T19:37:07.347Z,9.37
2018-04-11T19:39:34.815Z,10.10
2018-04-11T19:42:02.272Z,9.60
2018-04-11T19:44:29.737Z,8.87
2018-04-11T19:46:57.195Z,9.83
2018-04-11T19:49:24.644Z,9.47
2018-04-11T19:51:52.108Z,8.87
2018-04-11T19:54:19.572Z,8.80
2018-04-11T19:56:47.030Z,9.87
2018-04-11T19:59:15.254Z,9.60
2018-04-11T20:01:43.082Z,12.00
2018-04-11T20:04:10.545Z,9.57
2018-04-11T20:06:38.056Z,10.57
2018-04-11T20:09:05.522Z,9.40
2018-04-11T20:11:32.976Z,14.57
2018-04-11T20:14:00.432Z,9.10
2018-04-11T20:16:27.892Z,9.57
2018-04-11T20:18:55.348Z,9.37
2018-04-11T20:21:22.808Z,8.70
2018-04-11T20:23:50.263Z,9.00
2018-04-11T20:26:17.719Z,9.00
2018-04-11T20:28:45.184Z,9.80
2018-04-11T20:31:12.632Z,11.60
2018-04-11T20:33:40.091Z,9.20
2018-04-11T20:36:07.552Z,10.53
2018-04-11T20:38:35.008Z,9.73
2018-04-11T20:41:03.229Z,9.90
2018-04-11T20:43:30.692Z,10.40
2018-04-11T20:45:58.145Z,9.40
2018-04-11T20:48:25.613Z,9.67
2018-04-11T20:50:53.072Z,11.30
2018-04-11T20:53:21.294Z,10.27
2018-04-11T20:55:48.743Z,11.13
2018-04-11T20:58:16.215Z,12.77
2018-04-11T21:00:43.680Z,14.47
2018-04-11T21:03:11.136Z,13.13
2018-04-11T21:05:38.591Z,11.77
2018-04-11T21:08:06.043Z,13.83
2018-04-11T21:10:33.528Z,32.60
2018-04-11T21:13:00.996Z,31.37
2018-04-11T21:15:28.451Z,32.50
2018-04-11T21:17:55.900Z,32.60
2018-04-11T21:20:23.352Z,34.90
2018-04-11T21:22:50.805Z,27.57
2018-04-11T21:25:18.279Z,23.63
2018-04-11T21:27:45.803Z,23.03
2018-04-11T21:30:13.268Z,21.43
2018-04-11T21:32:40.721Z,23.20
2018-04-11T21:35:08.184Z,23.70
2018-04-11T21:37:35.636Z,22.47
2018-04-11T21:40:03.105Z,27.53
2018-04-11T21:42:30.548Z,18.00
2018-04-11T21:44:58.015Z,21.83
2018-04-11T21:47:25.468Z,18.53
2018-04-11T21:49:52.924Z,20.03
2018-04-11T21:52:20.414Z,19.40
2018-04-11T21:54:47.880Z,18.20
2018-04-11T21:57:16.111Z,17.20
2018-04-11T21:59:43.564Z,13.40
2018-04-11T22:02:11.028Z,15.10
2018-04-11T22:04:38.492Z,13.10
2018-04-11T22:07:05.952Z,13.20
2018-04-11T22:09:33.405Z,16.90
2018-04-11T22:12:01.119Z,13.87
2018-04-11T22:14:29.395Z,18.50
2018-04-11T22:16:57.899Z,13.40
2018-04-11T22:19:26.457Z,12.20
2018-04-11T22:21:55.846Z,15.97
2018-04-11T22:24:24.319Z,16.70
2018-04-11T22:26:51.902Z,11.30
2018-04-11T22:29:20.475Z,16.83
2018-04-11T22:31:47.970Z,13.20
2018-04-11T22:34:15.436Z,14.70
2018-04-11T22:36:42.890Z,13.70
2018-04-11T22:39:10.349Z,15.03
2018-04-11T22:41:37.817Z,15.47
2018-04-11T22:44:05.263Z,9.73
2018-04-11T22:46:32.721Z,14.10
2018-04-11T22:49:00.179Z,12.80
2018-04-11T22:51:28.000Z,12.37
2018-04-11T22:53:55.439Z,14.30
2018-04-11T22:56:22.895Z,14.73
2018-04-11T22:58:50.356Z,11.43
2018-04-11T23:01:17.825Z,10.67
2018-04-11T23:03:45.275Z,11.83
2018-04-11T23:06:12.727Z,11.20
2018-04-11T23:08:40.188Z,13.23
2018-04-11T23:11:07.652Z,12.27
2018-04-11T23:13:35.100Z,11.13
2018-04-11T23:16:02.560Z,13.97
2018-04-11T23:18:30.029Z,12.27
2018-04-11T23:20:57.479Z,9.77
2018-04-11T23:23:24.956Z,9.57
2018-04-11T23:25:52.380Z,10.40
2018-04-11T23:28:19.829Z,13.70
2018-04-11T23:30:47.288Z,10.80
2018-04-11T23:33:14.744Z,11.50
2018-04-11T23:35:42.200Z,9.63
2018-04-11T23:38:09.665Z,11.00
2018-04-11T23:40:37.135Z,8.57
2018-04-11T23:43:04.584Z,13.80
2018-04-11T23:45:32.055Z,8.80
2018-04-11T23:47:59.508Z,11.07
2018-04-11T23:50:26.967Z,11.50
2018-04-11T23:52:54.418Z,9.27
2018-04-11T23:55:21.876Z,14.13
2018-04-11T23:57:49.332Z,10.13
